»·PEaware :: N3023K KAWO-CYXX

N3023K :: KAWO-CYXX

FLIGHT INFORMATION

Flight Status: Arrived
Operator: Privately registered:
United States
More flights under this callsign
Pilot: Les P. (123)
Aircraft: Unknown
(P28U)
More flights by this aircraft type
Origin: KAWO Arlington Mun
United States
Destination: CYXX Abbotsford
Canada
More flights between these airports :: More routes between these airports
Route: IWANY V23 HUH
File this flight plan on PilotEdge
Remarks:
Altitude:
(Current/Filed)
6,000ft
Speed:
(Current/Filed)
144kts
Departed: 28-Nov-20 03:29 PM
Arrived: 28-Nov-20 04:06 PM
Distance/Time
Traveled:
52nm/0:37
Distance/Time
To Go:
Arrived

Flight Plot

Page will automatically refresh every two minutes.

Flight plan parsing failed; only flown route is shown


Map Options




Map Legend


Flown Route
Filed Route
Departure Airport
Arrival Airport
Navaid (VOR, NDB)
Fix

Horizontal Profiles

Position Reports

Time Latitude Longitude Heading Altitude Ground
Speed
28-Nov-20 15:17 48.161234 -122.153778 89 136ft 0kts
28-Nov-20 15:18 48.161234 -122.153778 89 136ft 0kts
28-Nov-20 15:19 48.161234 -122.153778 89 136ft 0kts
28-Nov-20 15:20 48.161234 -122.153778 89 136ft 0kts
28-Nov-20 15:21 48.159994 -122.154266 179 134ft 19kts
28-Nov-20 15:23 48.155822 -122.154129 182 130ft 8kts
28-Nov-20 15:24 48.155219 -122.155014 296 129ft 0kts
28-Nov-20 15:25 48.155219 -122.155014 296 129ft 0kts
28-Nov-20 15:26 48.155219 -122.155014 296 129ft 0kts
28-Nov-20 15:27 48.155219 -122.155014 296 129ft 0kts
28-Nov-20 15:28 48.155312 -122.156038 275 129ft 2kts
28-Nov-20 15:29 48.158232 -122.156248 359 132ft 63kts
28-Nov-20 15:30 48.179757 -122.158736 354 746ft 76kts
28-Nov-20 15:31 48.187773 -122.186875 320 1305ft 80kts
28-Nov-20 15:32 48.206281 -122.206200 331 1909ft 79kts
28-Nov-20 15:33 48.224177 -122.227097 314 2476ft 85kts
28-Nov-20 15:34 48.244583 -122.241267 344 3078ft 83kts
28-Nov-20 15:35 48.266612 -122.253375 340 3666ft 87kts
28-Nov-20 15:36 48.289267 -122.264649 340 4293ft 86kts
28-Nov-20 15:37 48.312409 -122.275640 340 4919ft 89kts
28-Nov-20 15:38 48.336075 -122.286879 339 5557ft 90kts
28-Nov-20 15:39 48.361112 -122.298748 341 5988ft 113kts
28-Nov-20 15:39 48.388991 -122.311282 342 5975ft 131kts
28-Nov-20 15:41 48.430166 -122.330907 341 5976ft 134kts
28-Nov-20 15:41 48.459867 -122.344968 341 5973ft 134kts
28-Nov-20 15:43 48.501420 -122.364931 342 5974ft 135kts
28-Nov-20 15:43 48.531080 -122.379060 341 5969ft 134kts
28-Nov-20 15:44 48.566719 -122.396177 342 5969ft 134kts
28-Nov-20 15:45 48.602332 -122.413213 341 5967ft 134kts
28-Nov-20 15:46 48.638011 -122.430322 341 5964ft 134kts
28-Nov-20 15:47 48.673687 -122.447542 341 5964ft 134kts
28-Nov-20 15:48 48.709294 -122.464582 341 5964ft 134kts
28-Nov-20 15:49 48.744907 -122.481949 341 5965ft 135kts
28-Nov-20 15:50 48.780670 -122.499075 342 5964ft 134kts
28-Nov-20 15:51 48.816319 -122.516343 341 5964ft 135kts
28-Nov-20 15:52 48.852060 -122.533732 342 5961ft 133kts
28-Nov-20 15:53 48.882832 -122.559442 314 5815ft 123kts
28-Nov-20 15:54 48.907673 -122.598200 314 5526ft 127kts
28-Nov-20 15:55 48.932857 -122.637959 314 5068ft 129kts
28-Nov-20 15:56 48.958143 -122.677890 314 4285ft 129kts
28-Nov-20 15:57 48.983756 -122.716123 336 3457ft 131kts
28-Nov-20 15:58 49.003241 -122.682566 87 2772ft 117kts
28-Nov-20 15:59 49.005800 -122.638646 84 2769ft 100kts
28-Nov-20 16:00 49.008281 -122.593506 85 2767ft 111kts
28-Nov-20 16:01 49.010955 -122.541053 86 2273ft 133kts
28-Nov-20 16:02 49.013791 -122.485521 86 1573ft 132kts
28-Nov-20 16:03 49.016822 -122.435250 88 1224ft 99kts
28-Nov-20 16:04 49.018509 -122.398086 88 559ft 72kts
28-Nov-20 16:05 49.019610 -122.370728 87 189ft 36kts
28-Nov-20 16:06 49.020212 -122.359684 75 193ft 17kts
28-Nov-20 16:07 49.021169 -122.358334 330 194ft 0kts

Navigation Log

Ident Type
Flight plan parsing failed, navigation log unavailable